sensor_id;sensor_type;location;lat;lon;timestamp;P1;durP1;ratioP1;P2;durP2;ratioP2
5125;SDS011;2581;53.112;8.896;2022-07-29T00:01:46;1.90;;;1.20;;
5125;SDS011;2581;53.112;8.896;2022-07-29T00:04:12;3.20;;;1.60;;
5125;SDS011;2581;53.112;8.896;2022-07-29T00:06:37;2.87;;;1.00;;
5125;SDS011;2581;53.112;8.896;2022-07-29T00:09:03;1.87;;;1.33;;
5125;SDS011;2581;53.112;8.896;2022-07-29T00:11:29;2.70;;;1.20;;
5125;SDS011;2581;53.112;8.896;2022-07-29T00:13:55;4.37;;;1.10;;
5125;SDS011;2581;53.112;8.896;2022-07-29T00:16:20;2.63;;;1.30;;
5125;SDS011;2581;53.112;8.896;2022-07-29T00:18:46;2.40;;;1.30;;
5125;SDS011;2581;53.112;8.896;2022-07-29T00:21:12;1.33;;;1.20;;
5125;SDS011;2581;53.112;8.896;2022-07-29T00:23:37;2.57;;;1.20;;
5125;SDS011;2581;53.112;8.896;2022-07-29T00:26:03;1.73;;;1.20;;
5125;SDS011;2581;53.112;8.896;2022-07-29T00:28:29;1.47;;;0.90;;
5125;SDS011;2581;53.112;8.896;2022-07-29T00:30:55;7.00;;;1.40;;
5125;SDS011;2581;53.112;8.896;2022-07-29T00:33:20;1.40;;;1.30;;
5125;SDS011;2581;53.112;8.896;2022-07-29T00:35:47;2.03;;;1.40;;
5125;SDS011;2581;53.112;8.896;2022-07-29T00:38:17;1.33;;;1.00;;
5125;SDS011;2581;53.112;8.896;2022-07-29T00:40:44;2.47;;;1.40;;
5125;SDS011;2581;53.112;8.896;2022-07-29T00:43:10;1.40;;;1.30;;
5125;SDS011;2581;53.112;8.896;2022-07-29T00:45:37;2.73;;;1.00;;
5125;SDS011;2581;53.112;8.896;2022-07-29T00:48:03;1.63;;;1.20;;
5125;SDS011;2581;53.112;8.896;2022-07-29T00:50:30;1.73;;;1.30;;
5125;SDS011;2581;53.112;8.896;2022-07-29T00:52:57;2.30;;;1.67;;
5125;SDS011;2581;53.112;8.896;2022-07-29T00:55:23;1.60;;;1.50;;
5125;SDS011;2581;53.112;8.896;2022-07-29T00:57:49;1.47;;;0.83;;
5125;SDS011;2581;53.112;8.896;2022-07-29T01:00:20;7.43;;;1.17;;
5125;SDS011;2581;53.112;8.896;2022-07-29T01:02:48;2.13;;;1.40;;
5125;SDS011;2581;53.112;8.896;2022-07-29T01:05:14;1.80;;;1.30;;
5125;SDS011;2581;53.112;8.896;2022-07-29T01:07:41;1.43;;;1.30;;
5125;SDS011;2581;53.112;8.896;2022-07-29T01:10:07;1.10;;;1.00;;
5125;SDS011;2581;53.112;8.896;2022-07-29T01:12:34;1.70;;;1.07;;
5125;SDS011;2581;53.112;8.896;2022-07-29T01:15:03;0.90;;;0.90;;
5125;SDS011;2581;53.112;8.896;2022-07-29T01:22:53;3.50;;;1.23;;
5125;SDS011;2581;53.112;8.896;2022-07-29T01:25:32;3.60;;;1.57;;
5125;SDS011;2581;53.112;8.896;2022-07-29T01:30:59;5.67;;;1.30;;
5125;SDS011;2581;53.112;8.896;2022-07-29T01:33:27;3.27;;;1.77;;
5125;SDS011;2581;53.112;8.896;2022-07-29T01:36:13;7.13;;;1.50;;
5125;SDS011;2581;53.112;8.896;2022-07-29T01:38:42;2.70;;;1.03;;
5125;SDS011;2581;53.112;8.896;2022-07-29T01:41:14;5.43;;;1.40;;
5125;SDS011;2581;53.112;8.896;2022-07-29T01:46:20;4.80;;;1.13;;
5125;SDS011;2581;53.112;8.896;2022-07-29T01:49:02;4.30;;;1.40;;
5125;SDS011;2581;53.112;8.896;2022-07-29T01:51:40;2.70;;;1.23;;
5125;SDS011;2581;53.112;8.896;2022-07-29T01:54:16;1.97;;;1.50;;
5125;SDS011;2581;53.112;8.896;2022-07-29T01:56:48;3.13;;;1.27;;
5125;SDS011;2581;53.112;8.896;2022-07-29T01:59:16;2.27;;;1.23;;
5125;SDS011;2581;53.112;8.896;2022-07-29T02:01:43;4.90;;;1.27;;
5125;SDS011;2581;53.112;8.896;2022-07-29T02:04:11;3.10;;;1.00;;
5125;SDS011;2581;53.112;8.896;2022-07-29T02:06:40;1.53;;;1.30;;
5125;SDS011;2581;53.112;8.896;2022-07-29T02:09:07;1.50;;;1.00;;
5125;SDS011;2581;53.112;8.896;2022-07-29T02:11:35;2.73;;;1.10;;
5125;SDS011;2581;53.112;8.896;2022-07-29T02:14:03;3.43;;;1.10;;
5125;SDS011;2581;53.112;8.896;2022-07-29T02:16:30;6.10;;;1.50;;
5125;SDS011;2581;53.112;8.896;2022-07-29T02:18:58;3.23;;;1.00;;
5125;SDS011;2581;53.112;8.896;2022-07-29T02:21:26;2.77;;;1.60;;
5125;SDS011;2581;53.112;8.896;2022-07-29T02:23:54;1.57;;;1.00;;
5125;SDS011;2581;53.112;8.896;2022-07-29T02:26:23;1.23;;;1.00;;
5125;SDS011;2581;53.112;8.896;2022-07-29T02:28:49;2.97;;;1.40;;
5125;SDS011;2581;53.112;8.896;2022-07-29T02:31:18;2.43;;;1.33;;
5125;SDS011;2581;53.112;8.896;2022-07-29T02:33:46;1.53;;;1.40;;
5125;SDS011;2581;53.112;8.896;2022-07-29T02:36:13;1.73;;;0.73;;
5125;SDS011;2581;53.112;8.896;2022-07-29T02:38:40;4.93;;;1.60;;
5125;SDS011;2581;53.112;8.896;2022-07-29T02:41:17;2.00;;;1.33;;
5125;SDS011;2581;53.112;8.896;2022-07-29T02:43:56;1.90;;;1.37;;
5125;SDS011;2581;53.112;8.896;2022-07-29T02:46:30;2.33;;;1.07;;
5125;SDS011;2581;53.112;8.896;2022-07-29T02:49:25;3.90;;;1.47;;
5125;SDS011;2581;53.112;8.896;2022-07-29T02:52:09;1.30;;;1.20;;
5125;SDS011;2581;53.112;8.896;2022-07-29T02:57:28;2.50;;;1.00;;
5125;SDS011;2581;53.112;8.896;2022-07-29T03:00:05;1.30;;;1.20;;
5125;SDS011;2581;53.112;8.896;2022-07-29T03:02:34;2.17;;;1.00;;
5125;SDS011;2581;53.112;8.896;2022-07-29T03:05:03;3.77;;;1.30;;
5125;SDS011;2581;53.112;8.896;2022-07-29T03:07:31;1.43;;;1.10;;
5125;SDS011;2581;53.112;8.896;2022-07-29T03:09:58;4.33;;;1.33;;
5125;SDS011;2581;53.112;8.896;2022-07-29T03:12:25;4.30;;;1.47;;
5125;SDS011;2581;53.112;8.896;2022-07-29T03:14:52;1.90;;;1.07;;
5125;SDS011;2581;53.112;8.896;2022-07-29T03:17:19;1.63;;;1.33;;
5125;SDS011;2581;53.112;8.896;2022-07-29T03:19:46;2.60;;;1.13;;
5125;SDS011;2581;53.112;8.896;2022-07-29T03:22:12;3.87;;;1.30;;
5125;SDS011;2581;53.112;8.896;2022-07-29T03:24:38;1.37;;;1.00;;
5125;SDS011;2581;53.112;8.896;2022-07-29T03:27:04;4.17;;;1.10;;
5125;SDS011;2581;53.112;8.896;2022-07-29T03:29:30;3.43;;;1.20;;
5125;SDS011;2581;53.112;8.896;2022-07-29T03:31:56;1.67;;;1.50;;
5125;SDS011;2581;53.112;8.896;2022-07-29T03:34:22;4.87;;;1.70;;
5125;SDS011;2581;53.112;8.896;2022-07-29T03:36:48;2.70;;;1.17;;
5125;SDS011;2581;53.112;8.896;2022-07-29T03:39:17;1.40;;;1.00;;
5125;SDS011;2581;53.112;8.896;2022-07-29T03:41:47;2.57;;;1.63;;
5125;SDS011;2581;53.112;8.896;2022-07-29T03:44:15;3.13;;;1.27;;
5125;SDS011;2581;53.112;8.896;2022-07-29T03:46:43;8.23;;;2.10;;
5125;SDS011;2581;53.112;8.896;2022-07-29T03:49:09;3.10;;;1.60;;
5125;SDS011;2581;53.112;8.896;2022-07-29T03:51:37;2.10;;;1.37;;
5125;SDS011;2581;53.112;8.896;2022-07-29T03:54:03;6.97;;;1.20;;
5125;SDS011;2581;53.112;8.896;2022-07-29T03:56:30;2.93;;;1.33;;
5125;SDS011;2581;53.112;8.896;2022-07-29T03:58:59;1.43;;;1.20;;
5125;SDS011;2581;53.112;8.896;2022-07-29T04:01:27;3.33;;;1.00;;
5125;SDS011;2581;53.112;8.896;2022-07-29T04:03:54;4.50;;;1.20;;
5125;SDS011;2581;53.112;8.896;2022-07-29T04:06:21;3.30;;;1.20;;
5125;SDS011;2581;53.112;8.896;2022-07-29T04:08:46;2.50;;;1.20;;
5125;SDS011;2581;53.112;8.896;2022-07-29T04:11:12;1.80;;;1.70;;
5125;SDS011;2581;53.112;8.896;2022-07-29T04:13:38;4.97;;;1.77;;
5125;SDS011;2581;53.112;8.896;2022-07-29T04:16:04;2.17;;;1.50;;
5125;SDS011;2581;53.112;8.896;2022-07-29T04:18:29;1.30;;;1.20;;
5125;SDS011;2581;53.112;8.896;2022-07-29T04:20:55;1.50;;;1.40;;
5125;SDS011;2581;53.112;8.896;2022-07-29T04:23:21;1.53;;;1.27;;
5125;SDS011;2581;53.112;8.896;2022-07-29T04:25:46;1.27;;;1.17;;
5125;SDS011;2581;53.112;8.896;2022-07-29T04:28:12;4.10;;;1.30;;
5125;SDS011;2581;53.112;8.896;2022-07-29T04:30:38;2.03;;;1.43;;
5125;SDS011;2581;53.112;8.896;2022-07-29T04:33:04;2.80;;;1.70;;
5125;SDS011;2581;53.112;8.896;2022-07-29T04:35:35;3.87;;;1.43;;
5125;SDS011;2581;53.112;8.896;2022-07-29T04:38:02;3.57;;;1.30;;
5125;SDS011;2581;53.112;8.896;2022-07-29T04:40:28;4.70;;;1.47;;
5125;SDS011;2581;53.112;8.896;2022-07-29T04:42:54;1.97;;;1.67;;
5125;SDS011;2581;53.112;8.896;2022-07-29T04:45:20;1.53;;;1.43;;
5125;SDS011;2581;53.112;8.896;2022-07-29T04:47:46;3.47;;;1.70;;
5125;SDS011;2581;53.112;8.896;2022-07-29T04:50:11;3.03;;;1.80;;
5125;SDS011;2581;53.112;8.896;2022-07-29T04:52:37;1.63;;;1.47;;
5125;SDS011;2581;53.112;8.896;2022-07-29T04:55:03;2.63;;;1.40;;
5125;SDS011;2581;53.112;8.896;2022-07-29T04:57:30;2.57;;;1.70;;
5125;SDS011;2581;53.112;8.896;2022-07-29T04:59:56;7.63;;;1.43;;
5125;SDS011;2581;53.112;8.896;2022-07-29T05:02:22;2.10;;;1.50;;
5125;SDS011;2581;53.112;8.896;2022-07-29T05:04:47;2.30;;;1.43;;
5125;SDS011;2581;53.112;8.896;2022-07-29T05:07:13;3.00;;;1.60;;
5125;SDS011;2581;53.112;8.896;2022-07-29T05:09:39;1.60;;;1.50;;
5125;SDS011;2581;53.112;8.896;2022-07-29T05:12:05;2.20;;;1.80;;
5125;SDS011;2581;53.112;8.896;2022-07-29T05:14:31;1.87;;;1.67;;
5125;SDS011;2581;53.112;8.896;2022-07-29T05:16:57;5.67;;;1.80;;
5125;SDS011;2581;53.112;8.896;2022-07-29T05:19:23;1.83;;;1.70;;
5125;SDS011;2581;53.112;8.896;2022-07-29T05:21:49;4.77;;;1.70;;
5125;SDS011;2581;53.112;8.896;2022-07-29T05:24:14;3.13;;;1.60;;
5125;SDS011;2581;53.112;8.896;2022-07-29T05:26:41;9.93;;;1.80;;
5125;SDS011;2581;53.112;8.896;2022-07-29T05:29:07;3.20;;;1.50;;
5125;SDS011;2581;53.112;8.896;2022-07-29T05:31:33;7.43;;;1.67;;
5125;SDS011;2581;53.112;8.896;2022-07-29T05:33:59;5.07;;;1.67;;
5125;SDS011;2581;53.112;8.896;2022-07-29T05:36:25;2.63;;;1.70;;
5125;SDS011;2581;53.112;8.896;2022-07-29T05:38:51;1.73;;;1.63;;
5125;SDS011;2581;53.112;8.896;2022-07-29T05:41:19;1.70;;;1.60;;
5125;SDS011;2581;53.112;8.896;2022-07-29T05:43:45;2.47;;;1.73;;
5125;SDS011;2581;53.112;8.896;2022-07-29T05:46:10;2.43;;;2.23;;
5125;SDS011;2581;53.112;8.896;2022-07-29T05:48:36;2.20;;;1.80;;
5125;SDS011;2581;53.112;8.896;2022-07-29T05:51:02;1.73;;;1.63;;
5125;SDS011;2581;53.112;8.896;2022-07-29T05:53:28;2.40;;;1.80;;
5125;SDS011;2581;53.112;8.896;2022-07-29T05:55:53;2.63;;;1.90;;
5125;SDS011;2581;53.112;8.896;2022-07-29T05:58:19;2.20;;;2.00;;
5125;SDS011;2581;53.112;8.896;2022-07-29T06:00:45;8.90;;;2.33;;
5125;SDS011;2581;53.112;8.896;2022-07-29T06:03:11;3.73;;;1.77;;
5125;SDS011;2581;53.112;8.896;2022-07-29T06:05:37;3.87;;;1.80;;
5125;SDS011;2581;53.112;8.896;2022-07-29T06:08:03;4.50;;;2.07;;
5125;SDS011;2581;53.112;8.896;2022-07-29T06:10:32;2.40;;;1.63;;
5125;SDS011;2581;53.112;8.896;2022-07-29T06:12:57;2.43;;;2.23;;
5125;SDS011;2581;53.112;8.896;2022-07-29T06:15:23;4.87;;;2.20;;
5125;SDS011;2581;53.112;8.896;2022-07-29T06:17:49;4.97;;;3.10;;
5125;SDS011;2581;53.112;8.896;2022-07-29T06:20:14;2.63;;;2.40;;
5125;SDS011;2581;53.112;8.896;2022-07-29T06:22:40;4.60;;;3.07;;
5125;SDS011;2581;53.112;8.896;2022-07-29T06:25:06;10.33;;;7.73;;
5125;SDS011;2581;53.112;8.896;2022-07-29T06:27:31;11.83;;;6.00;;
5125;SDS011;2581;53.112;8.896;2022-07-29T06:29:57;10.00;;;7.73;;
5125;SDS011;2581;53.112;8.896;2022-07-29T06:32:23;7.63;;;4.03;;
5125;SDS011;2581;53.112;8.896;2022-07-29T06:34:48;9.43;;;4.10;;
5125;SDS011;2581;53.112;8.896;2022-07-29T06:37:14;7.50;;;3.43;;
5125;SDS011;2581;53.112;8.896;2022-07-29T06:39:40;3.90;;;2.33;;
5125;SDS011;2581;53.112;8.896;2022-07-29T06:42:06;3.37;;;1.70;;
5125;SDS011;2581;53.112;8.896;2022-07-29T06:44:32;3.10;;;2.27;;
5125;SDS011;2581;53.112;8.896;2022-07-29T06:47:01;2.67;;;2.10;;
5125;SDS011;2581;53.112;8.896;2022-07-29T06:49:27;4.07;;;2.00;;
5125;SDS011;2581;53.112;8.896;2022-07-29T06:51:53;3.97;;;2.20;;
5125;SDS011;2581;53.112;8.896;2022-07-29T06:54:20;2.70;;;1.80;;
5125;SDS011;2581;53.112;8.896;2022-07-29T06:56:46;2.63;;;1.47;;
5125;SDS011;2581;53.112;8.896;2022-07-29T06:59:12;4.33;;;2.40;;
5125;SDS011;2581;53.112;8.896;2022-07-29T07:01:38;6.40;;;2.23;;
5125;SDS011;2581;53.112;8.896;2022-07-29T07:04:06;3.00;;;2.07;;
5125;SDS011;2581;53.112;8.896;2022-07-29T07:06:33;3.00;;;2.50;;
5125;SDS011;2581;53.112;8.896;2022-07-29T07:08:59;3.57;;;2.20;;
5125;SDS011;2581;53.112;8.896;2022-07-29T07:11:25;2.80;;;1.70;;
5125;SDS011;2581;53.112;8.896;2022-07-29T07:13:51;5.07;;;2.00;;
5125;SDS011;2581;53.112;8.896;2022-07-29T07:16:16;7.20;;;3.73;;
5125;SDS011;2581;53.112;8.896;2022-07-29T07:18:42;9.47;;;5.63;;
5125;SDS011;2581;53.112;8.896;2022-07-29T07:21:10;10.00;;;7.83;;
5125;SDS011;2581;53.112;8.896;2022-07-29T07:23:36;5.60;;;5.03;;
5125;SDS011;2581;53.112;8.896;2022-07-29T07:26:02;2.50;;;2.30;;
5125;SDS011;2581;53.112;8.896;2022-07-29T07:28:30;2.07;;;1.87;;
5125;SDS011;2581;53.112;8.896;2022-07-29T07:30:55;4.70;;;2.83;;
5125;SDS011;2581;53.112;8.896;2022-07-29T07:33:21;4.03;;;2.17;;
5125;SDS011;2581;53.112;8.896;2022-07-29T07:35:47;3.17;;;2.30;;
5125;SDS011;2581;53.112;8.896;2022-07-29T07:38:12;1.80;;;1.70;;
5125;SDS011;2581;53.112;8.896;2022-07-29T07:40:38;3.43;;;1.73;;
5125;SDS011;2581;53.112;8.896;2022-07-29T07:43:04;4.40;;;2.20;;
5125;SDS011;2581;53.112;8.896;2022-07-29T07:45:30;2.27;;;1.90;;
5125;SDS011;2581;53.112;8.896;2022-07-29T07:47:57;2.27;;;2.03;;
5125;SDS011;2581;53.112;8.896;2022-07-29T07:50:23;2.60;;;1.97;;
5125;SDS011;2581;53.112;8.896;2022-07-29T07:52:52;2.30;;;1.30;;
5125;SDS011;2581;53.112;8.896;2022-07-29T07:55:22;5.20;;;1.70;;
5125;SDS011;2581;53.112;8.896;2022-07-29T07:57:48;4.70;;;2.07;;
5125;SDS011;2581;53.112;8.896;2022-07-29T08:00:15;2.63;;;2.00;;
5125;SDS011;2581;53.112;8.896;2022-07-29T08:02:41;3.73;;;1.80;;
5125;SDS011;2581;53.112;8.896;2022-07-29T08:05:10;6.03;;;1.93;;
5125;SDS011;2581;53.112;8.896;2022-07-29T08:07:38;2.20;;;2.00;;
5125;SDS011;2581;53.112;8.896;2022-07-29T08:10:04;3.07;;;2.30;;
5125;SDS011;2581;53.112;8.896;2022-07-29T08:12:30;3.30;;;1.53;;
5125;SDS011;2581;53.112;8.896;2022-07-29T08:14:56;1.60;;;1.50;;
5125;SDS011;2581;53.112;8.896;2022-07-29T08:17:21;1.57;;;1.47;;
5125;SDS011;2581;53.112;8.896;2022-07-29T08:19:47;1.70;;;1.60;;
5125;SDS011;2581;53.112;8.896;2022-07-29T08:22:13;3.50;;;1.97;;
5125;SDS011;2581;53.112;8.896;2022-07-29T08:24:39;4.43;;;1.70;;
5125;SDS011;2581;53.112;8.896;2022-07-29T08:27:07;1.53;;;1.43;;
5125;SDS011;2581;53.112;8.896;2022-07-29T08:29:36;2.33;;;1.87;;
5125;SDS011;2581;53.112;8.896;2022-07-29T08:32:03;2.63;;;1.70;;
5125;SDS011;2581;53.112;8.896;2022-07-29T08:34:29;1.63;;;1.53;;
5125;SDS011;2581;53.112;8.896;2022-07-29T08:36:55;4.33;;;2.10;;
5125;SDS011;2581;53.112;8.896;2022-07-29T08:39:21;2.53;;;1.60;;
5125;SDS011;2581;53.112;8.896;2022-07-29T08:41:48;1.90;;;1.60;;
5125;SDS011;2581;53.112;8.896;2022-07-29T08:44:15;2.40;;;1.83;;
5125;SDS011;2581;53.112;8.896;2022-07-29T08:46:42;1.73;;;1.63;;
5125;SDS011;2581;53.112;8.896;2022-07-29T08:49:08;1.70;;;1.60;;
5125;SDS011;2581;53.112;8.896;2022-07-29T08:51:34;3.40;;;1.70;;
5125;SDS011;2581;53.112;8.896;2022-07-29T08:54:04;2.77;;;1.63;;
5125;SDS011;2581;53.112;8.896;2022-07-29T08:56:30;2.53;;;1.60;;
5125;SDS011;2581;53.112;8.896;2022-07-29T08:58:58;4.00;;;1.90;;
5125;SDS011;2581;53.112;8.896;2022-07-29T09:01:27;1.80;;;1.27;;
5125;SDS011;2581;53.112;8.896;2022-07-29T09:03:57;6.13;;;1.67;;
5125;SDS011;2581;53.112;8.896;2022-07-29T09:06:26;4.40;;;1.40;;
5125;SDS011;2581;53.112;8.896;2022-07-29T09:08:58;4.60;;;2.17;;
5125;SDS011;2581;53.112;8.896;2022-07-29T09:11:25;2.73;;;1.70;;
5125;SDS011;2581;53.112;8.896;2022-07-29T09:13:51;2.00;;;1.57;;
5125;SDS011;2581;53.112;8.896;2022-07-29T09:16:17;3.53;;;1.50;;
5125;SDS011;2581;53.112;8.896;2022-07-29T09:18:44;1.70;;;1.20;;
5125;SDS011;2581;53.112;8.896;2022-07-29T09:21:12;4.53;;;2.00;;
5125;SDS011;2581;53.112;8.896;2022-07-29T09:24:09;5.57;;;2.00;;
5125;SDS011;2581;53.112;8.896;2022-07-29T09:26:38;4.60;;;2.17;;
5125;SDS011;2581;53.112;8.896;2022-07-29T09:29:16;4.30;;;2.00;;
5125;SDS011;2581;53.112;8.896;2022-07-29T09:31:44;4.07;;;2.17;;
5125;SDS011;2581;53.112;8.896;2022-07-29T09:34:13;2.87;;;1.60;;
5125;SDS011;2581;53.112;8.896;2022-07-29T09:36:44;3.33;;;1.63;;
5125;SDS011;2581;53.112;8.896;2022-07-29T09:39:12;2.07;;;1.90;;
5125;SDS011;2581;53.112;8.896;2022-07-29T09:44:17;2.53;;;1.60;;
5125;SDS011;2581;53.112;8.896;2022-07-29T09:49:18;3.53;;;1.63;;
5125;SDS011;2581;53.112;8.896;2022-07-29T09:51:44;4.70;;;1.47;;
5125;SDS011;2581;53.112;8.896;2022-07-29T09:54:20;3.10;;;1.70;;
5125;SDS011;2581;53.112;8.896;2022-07-29T09:56:53;2.33;;;2.13;;
5125;SDS011;2581;53.112;8.896;2022-07-29T09:59:20;2.33;;;2.10;;
5125;SDS011;2581;53.112;8.896;2022-07-29T10:01:51;4.50;;;1.90;;
5125;SDS011;2581;53.112;8.896;2022-07-29T10:04:17;2.20;;;1.50;;
5125;SDS011;2581;53.112;8.896;2022-07-29T10:06:59;2.20;;;1.57;;
5125;SDS011;2581;53.112;8.896;2022-07-29T10:09:26;2.93;;;1.30;;
5125;SDS011;2581;53.112;8.896;2022-07-29T10:14:48;4.90;;;1.53;;
5125;SDS011;2581;53.112;8.896;2022-07-29T10:17:14;2.60;;;1.43;;
5125;SDS011;2581;53.112;8.896;2022-07-29T10:19:41;3.90;;;1.50;;
5125;SDS011;2581;53.112;8.896;2022-07-29T10:22:08;2.10;;;1.50;;
5125;SDS011;2581;53.112;8.896;2022-07-29T10:24:35;2.40;;;1.23;;
5125;SDS011;2581;53.112;8.896;2022-07-29T10:27:03;2.57;;;1.53;;
5125;SDS011;2581;53.112;8.896;2022-07-29T10:29:31;5.00;;;2.07;;
5125;SDS011;2581;53.112;8.896;2022-07-29T10:32:16;1.80;;;1.70;;
5125;SDS011;2581;53.112;8.896;2022-07-29T10:40:46;2.20;;;1.23;;
5125;SDS011;2581;53.112;8.896;2022-07-29T10:43:43;3.03;;;1.20;;
5125;SDS011;2581;53.112;8.896;2022-07-29T10:46:11;3.03;;;1.70;;
5125;SDS011;2581;53.112;8.896;2022-07-29T10:52:15;3.27;;;1.83;;
5125;SDS011;2581;53.112;8.896;2022-07-29T10:57:20;5.10;;;1.80;;
5125;SDS011;2581;53.112;8.896;2022-07-29T10:59:50;2.97;;;1.67;;
5125;SDS011;2581;53.112;8.896;2022-07-29T11:05:05;4.67;;;1.40;;
5125;SDS011;2581;53.112;8.896;2022-07-29T11:07:33;4.27;;;1.90;;
5125;SDS011;2581;53.112;8.896;2022-07-29T11:23:23;5.77;;;1.80;;
5125;SDS011;2581;53.112;8.896;2022-07-29T11:28:48;4.50;;;1.60;;
5125;SDS011;2581;53.112;8.896;2022-07-29T11:31:40;4.50;;;1.80;;
5125;SDS011;2581;53.112;8.896;2022-07-29T11:39:37;3.67;;;1.57;;
5125;SDS011;2581;53.112;8.896;2022-07-29T11:44:58;3.90;;;1.20;;
5125;SDS011;2581;53.112;8.896;2022-07-29T11:47:26;1.43;;;1.33;;
5125;SDS011;2581;53.112;8.896;2022-07-29T11:49:54;5.70;;;1.60;;
5125;SDS011;2581;53.112;8.896;2022-07-29T11:52:22;3.70;;;1.50;;
5125;SDS011;2581;53.112;8.896;2022-07-29T11:54:49;2.90;;;1.57;;
5125;SDS011;2581;53.112;8.896;2022-07-29T11:57:16;3.60;;;1.70;;
5125;SDS011;2581;53.112;8.896;2022-07-29T11:59:43;2.97;;;1.30;;
5125;SDS011;2581;53.112;8.896;2022-07-29T12:02:10;8.63;;;1.20;;
5125;SDS011;2581;53.112;8.896;2022-07-29T12:07:19;4.90;;;1.57;;
5125;SDS011;2581;53.112;8.896;2022-07-29T12:09:54;2.73;;;1.13;;
5125;SDS011;2581;53.112;8.896;2022-07-29T12:12:20;2.70;;;1.17;;
5125;SDS011;2581;53.112;8.896;2022-07-29T12:14:46;1.40;;;1.23;;
5125;SDS011;2581;53.112;8.896;2022-07-29T12:17:28;2.20;;;1.10;;
5125;SDS011;2581;53.112;8.896;2022-07-29T12:19:59;1.07;;;0.97;;
5125;SDS011;2581;53.112;8.896;2022-07-29T12:22:33;1.67;;;1.43;;
5125;SDS011;2581;53.112;8.896;2022-07-29T12:25:05;1.60;;;1.50;;
5125;SDS011;2581;53.112;8.896;2022-07-29T12:27:31;3.10;;;1.63;;
5125;SDS011;2581;53.112;8.896;2022-07-29T12:30:02;2.50;;;1.60;;
5125;SDS011;2581;53.112;8.896;2022-07-29T12:35:03;1.63;;;1.47;;
5125;SDS011;2581;53.112;8.896;2022-07-29T12:37:34;1.93;;;1.17;;
5125;SDS011;2581;53.112;8.896;2022-07-29T12:40:02;6.13;;;1.27;;
5125;SDS011;2581;53.112;8.896;2022-07-29T12:42:29;1.67;;;1.33;;
5125;SDS011;2581;53.112;8.896;2022-07-29T12:44:54;3.57;;;1.53;;
5125;SDS011;2581;53.112;8.896;2022-07-29T12:47:20;2.10;;;1.17;;
5125;SDS011;2581;53.112;8.896;2022-07-29T12:49:47;2.03;;;1.20;;
5125;SDS011;2581;53.112;8.896;2022-07-29T12:52:27;3.47;;;1.50;;
5125;SDS011;2581;53.112;8.896;2022-07-29T12:54:54;1.93;;;1.37;;
5125;SDS011;2581;53.112;8.896;2022-07-29T12:57:21;2.83;;;1.67;;
5125;SDS011;2581;53.112;8.896;2022-07-29T13:02:24;3.53;;;1.20;;
5125;SDS011;2581;53.112;8.896;2022-07-29T13:04:56;1.80;;;1.53;;
5125;SDS011;2581;53.112;8.896;2022-07-29T13:07:28;1.97;;;1.50;;
5125;SDS011;2581;53.112;8.896;2022-07-29T13:09:58;2.93;;;1.30;;
5125;SDS011;2581;53.112;8.896;2022-07-29T13:12:38;1.70;;;1.60;;
5125;SDS011;2581;53.112;8.896;2022-07-29T13:15:14;2.63;;;1.40;;
5125;SDS011;2581;53.112;8.896;2022-07-29T13:17:44;1.93;;;1.20;;
5125;SDS011;2581;53.112;8.896;2022-07-29T13:20:10;1.67;;;1.20;;
5125;SDS011;2581;53.112;8.896;2022-07-29T13:22:41;2.97;;;1.10;;
5125;SDS011;2581;53.112;8.896;2022-07-29T13:25:08;1.33;;;1.17;;
5125;SDS011;2581;53.112;8.896;2022-07-29T13:27:37;2.17;;;1.10;;
5125;SDS011;2581;53.112;8.896;2022-07-29T13:30:05;4.40;;;1.57;;
5125;SDS011;2581;53.112;8.896;2022-07-29T13:32:32;3.30;;;1.20;;
5125;SDS011;2581;53.112;8.896;2022-07-29T13:35:00;4.73;;;1.47;;
5125;SDS011;2581;53.112;8.896;2022-07-29T13:37:32;6.30;;;1.50;;
5125;SDS011;2581;53.112;8.896;2022-07-29T13:39:59;2.40;;;1.50;;
5125;SDS011;2581;53.112;8.896;2022-07-29T13:42:27;5.70;;;1.47;;
5125;SDS011;2581;53.112;8.896;2022-07-29T13:44:53;2.97;;;1.20;;
5125;SDS011;2581;53.112;8.896;2022-07-29T13:47:19;2.00;;;1.53;;
5125;SDS011;2581;53.112;8.896;2022-07-29T13:49:46;1.63;;;1.20;;
5125;SDS011;2581;53.112;8.896;2022-07-29T13:52:13;2.80;;;1.37;;
5125;SDS011;2581;53.112;8.896;2022-07-29T13:54:39;1.20;;;1.10;;
5125;SDS011;2581;53.112;8.896;2022-07-29T13:57:05;3.33;;;1.23;;
5125;SDS011;2581;53.112;8.896;2022-07-29T13:59:30;1.87;;;1.53;;
5125;SDS011;2581;53.112;8.896;2022-07-29T14:01:56;2.40;;;1.40;;
5125;SDS011;2581;53.112;8.896;2022-07-29T14:04:22;4.53;;;1.90;;
5125;SDS011;2581;53.112;8.896;2022-07-29T14:06:48;2.90;;;1.50;;
5125;SDS011;2581;53.112;8.896;2022-07-29T14:09:14;4.30;;;1.17;;
5125;SDS011;2581;53.112;8.896;2022-07-29T14:11:40;2.93;;;1.37;;
5125;SDS011;2581;53.112;8.896;2022-07-29T14:14:06;2.53;;;1.90;;
5125;SDS011;2581;53.112;8.896;2022-07-29T14:16:32;3.40;;;1.70;;
5125;SDS011;2581;53.112;8.896;2022-07-29T14:18:58;2.17;;;1.27;;
5125;SDS011;2581;53.112;8.896;2022-07-29T14:21:23;2.57;;;1.57;;
5125;SDS011;2581;53.112;8.896;2022-07-29T14:23:49;4.57;;;1.33;;
5125;SDS011;2581;53.112;8.896;2022-07-29T14:26:16;2.20;;;1.77;;
5125;SDS011;2581;53.112;8.896;2022-07-29T14:28:42;2.73;;;1.30;;
5125;SDS011;2581;53.112;8.896;2022-07-29T14:31:08;1.43;;;1.10;;
5125;SDS011;2581;53.112;8.896;2022-07-29T14:33:34;3.50;;;1.70;;
5125;SDS011;2581;53.112;8.896;2022-07-29T14:35:59;3.30;;;1.97;;
5125;SDS011;2581;53.112;8.896;2022-07-29T14:38:25;1.50;;;1.23;;
5125;SDS011;2581;53.112;8.896;2022-07-29T14:40:51;2.60;;;1.27;;
5125;SDS011;2581;53.112;8.896;2022-07-29T14:43:17;3.37;;;1.30;;
5125;SDS011;2581;53.112;8.896;2022-07-29T14:45:42;3.03;;;1.23;;
5125;SDS011;2581;53.112;8.896;2022-07-29T14:48:08;4.00;;;1.40;;
5125;SDS011;2581;53.112;8.896;2022-07-29T14:50:34;3.47;;;1.77;;
5125;SDS011;2581;53.112;8.896;2022-07-29T14:53:00;7.50;;;1.50;;
5125;SDS011;2581;53.112;8.896;2022-07-29T14:55:26;2.03;;;1.17;;
5125;SDS011;2581;53.112;8.896;2022-07-29T14:57:52;3.30;;;1.80;;
5125;SDS011;2581;53.112;8.896;2022-07-29T15:00:18;1.63;;;1.30;;
5125;SDS011;2581;53.112;8.896;2022-07-29T15:02:45;1.30;;;1.20;;
5125;SDS011;2581;53.112;8.896;2022-07-29T15:05:11;5.97;;;1.50;;
5125;SDS011;2581;53.112;8.896;2022-07-29T15:07:37;2.13;;;1.23;;
5125;SDS011;2581;53.112;8.896;2022-07-29T15:10:03;1.53;;;1.43;;
5125;SDS011;2581;53.112;8.896;2022-07-29T15:12:29;3.57;;;1.83;;
5125;SDS011;2581;53.112;8.896;2022-07-29T15:14:55;3.13;;;1.30;;
5125;SDS011;2581;53.112;8.896;2022-07-29T15:17:21;4.57;;;1.70;;
5125;SDS011;2581;53.112;8.896;2022-07-29T15:19:47;2.90;;;1.40;;
5125;SDS011;2581;53.112;8.896;2022-07-29T15:22:12;2.10;;;1.40;;
5125;SDS011;2581;53.112;8.896;2022-07-29T15:24:38;1.73;;;1.00;;
5125;SDS011;2581;53.112;8.896;2022-07-29T15:27:04;5.70;;;1.30;;
5125;SDS011;2581;53.112;8.896;2022-07-29T15:29:29;2.50;;;1.00;;
5125;SDS011;2581;53.112;8.896;2022-07-29T15:31:55;4.53;;;1.60;;
5125;SDS011;2581;53.112;8.896;2022-07-29T15:34:21;2.57;;;1.30;;
5125;SDS011;2581;53.112;8.896;2022-07-29T15:36:48;1.77;;;1.50;;
5125;SDS011;2581;53.112;8.896;2022-07-29T15:39:15;2.60;;;1.50;;
5125;SDS011;2581;53.112;8.896;2022-07-29T15:41:41;1.17;;;1.03;;
5125;SDS011;2581;53.112;8.896;2022-07-29T15:44:07;5.27;;;1.33;;
5125;SDS011;2581;53.112;8.896;2022-07-29T15:46:33;2.60;;;1.10;;
5125;SDS011;2581;53.112;8.896;2022-07-29T15:49:17;1.53;;;1.43;;
5125;SDS011;2581;53.112;8.896;2022-07-29T15:51:42;1.80;;;1.43;;
5125;SDS011;2581;53.112;8.896;2022-07-29T15:54:08;2.80;;;1.53;;
5125;SDS011;2581;53.112;8.896;2022-07-29T15:56:34;1.63;;;1.37;;
5125;SDS011;2581;53.112;8.896;2022-07-29T15:59:00;4.60;;;1.53;;
5125;SDS011;2581;53.112;8.896;2022-07-29T16:01:25;2.03;;;1.63;;
5125;SDS011;2581;53.112;8.896;2022-07-29T16:03:51;1.40;;;1.30;;
5125;SDS011;2581;53.112;8.896;2022-07-29T16:06:17;3.80;;;1.50;;
5125;SDS011;2581;53.112;8.896;2022-07-29T16:08:43;1.60;;;1.40;;
5125;SDS011;2581;53.112;8.896;2022-07-29T16:11:09;1.20;;;1.00;;
5125;SDS011;2581;53.112;8.896;2022-07-29T16:13:35;1.83;;;1.33;;
5125;SDS011;2581;53.112;8.896;2022-07-29T16:16:00;3.37;;;1.83;;
5125;SDS011;2581;53.112;8.896;2022-07-29T16:18:26;2.70;;;2.07;;
5125;SDS011;2581;53.112;8.896;2022-07-29T16:20:52;1.87;;;1.73;;
5125;SDS011;2581;53.112;8.896;2022-07-29T16:23:18;2.83;;;1.70;;
5125;SDS011;2581;53.112;8.896;2022-07-29T16:25:43;1.90;;;1.43;;
5125;SDS011;2581;53.112;8.896;2022-07-29T16:28:09;2.30;;;1.73;;